createdAt,value
2018-02-02T00:00:22.277Z,3.75
2018-02-02T00:02:50.969Z,4.32
2018-02-02T00:05:19.655Z,2.53
2018-02-02T00:07:48.396Z,2.83
2018-02-02T00:10:17.084Z,2.95
2018-02-02T00:12:45.803Z,2.60
2018-02-02T00:15:14.519Z,2.65
2018-02-02T00:17:43.174Z,2.72
2018-02-02T00:20:11.888Z,3.10
2018-02-02T00:22:40.584Z,3.30
2018-02-02T00:25:09.246Z,3.58
2018-02-02T00:27:37.935Z,3.67
2018-02-02T00:30:06.636Z,2.00
2018-02-02T00:32:35.294Z,1.70
2018-02-02T00:35:03.973Z,2.60
2018-02-02T00:37:32.664Z,2.72
2018-02-02T00:40:01.379Z,4.12
2018-02-02T00:42:30.240Z,2.42
2018-02-02T00:44:58.949Z,3.05
2018-02-02T00:47:26.972Z,2.08
2018-02-02T00:49:56.428Z,2.08
2018-02-02T00:52:25.125Z,2.65
2018-02-02T00:54:53.788Z,3.15
2018-02-02T00:57:22.520Z,3.03
2018-02-02T00:59:51.994Z,3.28
2018-02-02T01:02:20.746Z,2.83
2018-02-02T01:04:49.424Z,4.20
2018-02-02T01:07:18.121Z,3.90
2018-02-02T01:09:46.833Z,3.78
2018-02-02T01:12:15.544Z,4.05
2018-02-02T01:14:44.446Z,4.28
2018-02-02T01:17:13.130Z,5.10
2018-02-02T01:19:41.832Z,3.17
2018-02-02T01:22:11.312Z,8.02
2018-02-02T01:24:40.028Z,3.00
2018-02-02T01:27:09.486Z,4.80
2018-02-02T01:29:38.162Z,2.85
2018-02-02T01:32:06.862Z,3.00
2018-02-02T01:34:35.566Z,3.60
2018-02-02T01:37:04.252Z,4.50
2018-02-02T01:39:32.964Z,3.67
2018-02-02T01:42:02.397Z,3.17
2018-02-02T01:44:31.117Z,4.40
2018-02-02T01:46:59.850Z,3.20
2018-02-02T01:49:29.461Z,3.83
2018-02-02T01:51:58.889Z,3.37
2018-02-02T01:54:27.858Z,6.25
2018-02-02T01:56:56.573Z,4.12
2018-02-02T01:59:25.305Z,4.72
2018-02-02T02:01:54.041Z,5.35
2018-02-02T02:04:22.721Z,5.60
2018-02-02T02:06:51.396Z,4.18
2018-02-02T02:09:20.195Z,4.07
2018-02-02T02:11:48.883Z,4.00
2018-02-02T02:14:18.320Z,4.47
2018-02-02T02:16:47.033Z,5.62
2018-02-02T02:19:15.750Z,5.22
2018-02-02T02:21:45.227Z,4.57
2018-02-02T02:24:13.906Z,4.22
2018-02-02T02:26:42.860Z,3.03
2018-02-02T02:29:11.565Z,3.30
2018-02-02T02:31:40.317Z,3.45
2018-02-02T02:34:09.009Z,5.32
2018-02-02T02:36:37.766Z,4.93
2018-02-02T02:39:06.509Z,3.75
2018-02-02T02:41:35.232Z,2.70
2018-02-02T02:44:03.931Z,3.75
2018-02-02T02:46:32.920Z,3.75
2018-02-02T02:49:01.635Z,3.42
2018-02-02T02:51:31.309Z,2.05
2018-02-02T02:54:00.027Z,2.78
2018-02-02T02:56:28.894Z,2.60
2018-02-02T02:58:57.585Z,2.40
2018-02-02T03:01:26.258Z,1.90
2018-02-02T03:03:54.965Z,1.92
2018-02-02T03:06:23.658Z,2.00
2018-02-02T03:08:52.616Z,2.17
2018-02-02T03:11:21.325Z,1.40
2018-02-02T03:13:50.037Z,1.12
2018-02-02T03:16:19.531Z,1.30
2018-02-02T03:18:48.986Z,1.95
2018-02-02T03:21:17.902Z,1.73
2018-02-02T03:23:46.944Z,1.20
2018-02-02T03:26:15.637Z,1.00
2018-02-02T03:28:44.332Z,1.10
2018-02-02T03:31:13.014Z,1.40
2018-02-02T03:33:41.692Z,0.90
2018-02-02T03:36:10.432Z,1.00
2018-02-02T03:38:39.133Z,1.00
2018-02-02T03:41:07.811Z,1.05
2018-02-02T03:43:36.544Z,1.00
2018-02-02T03:46:04.568Z,1.17
2018-02-02T03:48:33.268Z,1.00
2018-02-02T03:51:01.952Z,1.12
2018-02-02T03:53:30.633Z,0.65
2018-02-02T03:55:59.324Z,0.80
2018-02-02T03:58:27.598Z,1.33
2018-02-02T04:00:56.515Z,0.70
2018-02-02T04:03:25.980Z,1.08
2018-02-02T04:05:54.688Z,0.60
2018-02-02T04:08:23.393Z,0.85
2018-02-02T04:10:52.857Z,0.98
2018-02-02T04:13:21.595Z,0.55
2018-02-02T04:15:51.085Z,0.75
2018-02-02T04:18:19.752Z,0.88
2018-02-02T04:20:48.454Z,0.85
2018-02-02T04:23:17.197Z,0.70
2018-02-02T04:25:45.885Z,0.70
2018-02-02T04:28:14.807Z,0.60
2018-02-02T04:30:43.728Z,0.80
2018-02-02T04:33:13.240Z,0.60
2018-02-02T04:35:42.550Z,0.70
2018-02-02T04:38:11.043Z,0.70
2018-02-02T04:40:39.781Z,0.70
2018-02-02T04:43:08.504Z,0.95
2018-02-02T04:45:37.240Z,1.35
2018-02-02T04:48:06.074Z,0.70
2018-02-02T04:50:34.769Z,1.52
2018-02-02T04:53:04.306Z,1.00
2018-02-02T04:55:33.041Z,1.20
2018-02-02T04:58:01.437Z,0.82
2018-02-02T05:00:30.935Z,0.88
2018-02-02T05:02:59.873Z,0.85
2018-02-02T05:05:28.599Z,0.82
2018-02-02T05:07:57.323Z,2.10
2018-02-02T05:10:26.046Z,1.10
2018-02-02T05:12:54.740Z,0.80
2018-02-02T05:15:23.526Z,2.25
2018-02-02T05:17:52.268Z,0.95
2018-02-02T05:20:20.637Z,1.58
2018-02-02T05:22:49.410Z,0.80
2018-02-02T05:25:18.392Z,1.55
2018-02-02T05:27:47.384Z,1.33
2018-02-02T05:30:16.340Z,1.10
2018-02-02T05:32:45.037Z,0.90
2018-02-02T05:35:13.760Z,1.42
2018-02-02T05:37:42.500Z,4.37
2018-02-02T05:40:11.468Z,2.53
2018-02-02T05:42:40.973Z,3.10
2018-02-02T05:45:10.153Z,3.22
2018-02-02T05:47:39.140Z,3.40
2018-02-02T05:50:07.837Z,3.45
2018-02-02T05:52:36.590Z,2.92
2018-02-02T05:55:04.690Z,3.12
2018-02-02T05:57:33.446Z,3.53
2018-02-02T06:00:02.389Z,3.45
2018-02-02T06:02:32.084Z,3.10
2018-02-02T06:05:00.838Z,2.50
2018-02-02T06:07:29.539Z,2.30
2018-02-02T06:09:58.248Z,2.90
2018-02-02T06:12:27.186Z,2.25
2018-02-02T06:14:55.912Z,3.72
2018-02-02T06:17:24.630Z,2.83
2018-02-02T06:19:54.175Z,2.67
2018-02-02T06:22:22.584Z,2.15
2018-02-02T06:24:51.347Z,2.33
2018-02-02T06:27:20.131Z,1.70
2018-02-02T06:29:48.872Z,3.00
2018-02-02T06:32:17.881Z,3.12
2018-02-02T06:34:47.588Z,2.10
2018-02-02T06:37:17.049Z,2.28
2018-02-02T06:39:46.591Z,2.40
2018-02-02T06:42:15.297Z,2.65
2018-02-02T06:44:44.307Z,3.45
2018-02-02T06:47:13.032Z,2.87
2018-02-02T06:49:41.823Z,2.85
2018-02-02T06:52:10.758Z,2.30
2018-02-02T06:54:40.292Z,2.92
2018-02-02T06:57:08.604Z,3.35
2018-02-02T06:59:38.046Z,2.60
2018-02-02T07:02:07.779Z,2.90
2018-02-02T07:04:36.699Z,2.85
2018-02-02T07:07:05.588Z,2.62
2018-02-02T07:09:35.312Z,2.72
2018-02-02T07:12:04.003Z,2.75
2018-02-02T07:14:32.834Z,1.98
2018-02-02T07:17:02.564Z,2.60
2018-02-02T07:19:32.107Z,2.33
2018-02-02T07:22:00.848Z,8.18
2018-02-02T07:24:30.597Z,2.05
2018-02-02T07:26:59.598Z,3.40
2018-02-02T07:29:28.398Z,2.62
2018-02-02T07:31:56.928Z,3.62
2018-02-02T07:34:26.656Z,2.40
2018-02-02T07:36:56.143Z,2.83
2018-02-02T07:39:25.300Z,4.30
2018-02-02T07:41:54.076Z,3.37
2018-02-02T07:44:22.839Z,3.33
2018-02-02T07:46:51.659Z,3.50
2018-02-02T07:49:20.404Z,2.83
2018-02-02T07:51:49.360Z,3.12
2018-02-02T07:54:19.727Z,2.58
2018-02-02T07:56:48.682Z,3.33
2018-02-02T07:59:17.645Z,4.05
2018-02-02T08:01:46.665Z,7.55
2018-02-02T08:04:15.353Z,6.28
2018-02-02T08:06:44.303Z,7.53
2018-02-02T08:09:13.288Z,7.62
2018-02-02T08:11:42.312Z,8.05
2018-02-02T08:14:11.271Z,5.18
2018-02-02T08:16:40.013Z,6.45
2018-02-02T08:19:08.984Z,4.18
2018-02-02T08:21:37.969Z,3.25
2018-02-02T08:24:06.491Z,2.47
2018-02-02T08:26:36.006Z,2.75
2018-02-02T08:29:04.519Z,2.28
2018-02-02T08:34:06.393Z,4.60
2018-02-02T08:36:35.317Z,2.70
2018-02-02T08:39:03.247Z,2.08
2018-02-02T08:41:32.870Z,3.53
2018-02-02T08:44:01.654Z,3.28
2018-02-02T08:46:30.621Z,3.70
2018-02-02T08:48:59.401Z,3.95
2018-02-02T08:51:28.400Z,3.12
2018-02-02T08:53:57.391Z,4.03
2018-02-02T08:56:26.109Z,3.17
2018-02-02T08:58:54.493Z,3.65
2018-02-02T09:01:28.671Z,4.47
2018-02-02T09:03:57.367Z,3.60
2018-02-02T09:06:26.124Z,3.90
2018-02-02T09:08:55.917Z,3.85
2018-02-02T09:11:24.884Z,4.82
2018-02-02T09:13:53.812Z,4.07
2018-02-02T09:16:22.765Z,5.60
2018-02-02T09:18:51.728Z,4.57
2018-02-02T09:21:20.030Z,3.10
2018-02-02T09:23:49.051Z,4.47
2018-02-02T09:26:17.853Z,3.00
2018-02-02T09:28:46.806Z,4.85
2018-02-02T09:31:16.344Z,3.67
2018-02-02T09:33:45.291Z,5.40
2018-02-02T09:36:13.764Z,4.10
2018-02-02T09:38:42.529Z,4.05
2018-02-02T09:41:12.249Z,4.12
2018-02-02T09:43:41.229Z,3.47
2018-02-02T09:46:09.984Z,5.05
2018-02-02T09:48:38.761Z,3.78
2018-02-02T09:51:08.315Z,3.20
2018-02-02T09:53:37.305Z,4.03
2018-02-02T09:56:06.238Z,4.90
2018-02-02T09:58:35.214Z,3.47
2018-02-02T10:01:04.181Z,6.57
2018-02-02T10:03:32.979Z,4.37
2018-02-02T10:06:01.761Z,4.85
2018-02-02T10:08:30.561Z,3.62
2018-02-02T10:10:59.486Z,3.30
2018-02-02T10:13:28.307Z,3.55
2018-02-02T10:15:57.017Z,5.07
2018-02-02T10:18:25.685Z,4.32
2018-02-02T10:20:54.661Z,5.32
2018-02-02T10:23:24.172Z,3.62
2018-02-02T10:25:52.913Z,3.80
2018-02-02T10:28:21.707Z,4.28
2018-02-02T10:30:50.644Z,4.32
2018-02-02T10:33:20.337Z,2.75
2018-02-02T10:35:49.122Z,4.03
2018-02-02T10:38:18.045Z,6.60
2018-02-02T10:40:46.794Z,4.53
2018-02-02T10:43:15.421Z,5.00
2018-02-02T10:45:44.208Z,4.10
2018-02-02T10:48:13.688Z,6.10
2018-02-02T10:50:42.464Z,4.18
2018-02-02T10:53:11.220Z,4.43
2018-02-02T10:55:39.905Z,3.85
2018-02-02T10:58:08.694Z,4.20
2018-02-02T11:03:55.109Z,4.22
2018-02-02T11:06:24.545Z,4.60
2018-02-02T11:08:53.271Z,4.93
2018-02-02T11:11:21.998Z,4.78
2018-02-02T11:13:50.647Z,4.40
2018-02-02T11:16:20.094Z,3.08
2018-02-02T11:18:48.996Z,3.80
2018-02-02T11:21:17.672Z,3.62
2018-02-02T11:23:46.357Z,3.58
2018-02-02T11:26:15.043Z,3.70
2018-02-02T11:28:43.722Z,3.87
2018-02-02T11:31:12.392Z,4.32
2018-02-02T11:33:41.089Z,3.87
2018-02-02T11:36:09.793Z,4.70
2018-02-02T11:38:38.682Z,4.90
2018-02-02T11:41:07.594Z,4.18
2018-02-02T11:43:36.356Z,3.95
2018-02-02T11:46:05.030Z,3.72
2018-02-02T11:48:34.516Z,3.83
2018-02-02T11:51:03.265Z,3.15
2018-02-02T11:53:31.925Z,4.40
2018-02-02T11:56:00.655Z,4.53
2018-02-02T11:58:30.118Z,4.07
2018-02-02T12:00:58.584Z,4.80
2018-02-02T12:03:27.314Z,4.45
2018-02-02T12:05:55.801Z,5.45
2018-02-02T12:08:24.521Z,4.00
2018-02-02T12:10:53.267Z,5.05
2018-02-02T12:13:21.961Z,5.85
2018-02-02T12:15:50.630Z,4.40
2018-02-02T12:18:19.164Z,4.07
2018-02-02T12:20:47.671Z,5.10
2018-02-02T12:23:28.121Z,5.97
2018-02-02T12:26:03.243Z,4.95
2018-02-02T12:28:38.170Z,4.97
2018-02-02T12:31:25.423Z,3.22
2018-02-02T12:33:54.754Z,4.60
2018-02-02T12:36:24.759Z,5.12
2018-02-02T12:38:53.313Z,4.07
2018-02-02T12:41:22.593Z,4.43
2018-02-02T12:43:51.741Z,4.80
2018-02-02T12:46:20.752Z,3.75
2018-02-02T12:48:59.708Z,3.85
2018-02-02T12:51:28.673Z,4.60
2018-02-02T12:53:57.562Z,4.75
2018-02-02T12:56:26.431Z,4.60
2018-02-02T12:58:55.441Z,3.60
2018-02-02T13:01:24.362Z,4.93
2018-02-02T13:03:53.109Z,4.30
2018-02-02T13:06:22.332Z,5.10
2018-02-02T13:08:51.064Z,4.28
2018-02-02T13:11:20.561Z,3.40
2018-02-02T13:13:49.242Z,5.10
2018-02-02T13:16:17.949Z,5.12
2018-02-02T13:18:46.613Z,4.82
2018-02-02T13:21:16.108Z,4.15
2018-02-02T13:23:44.790Z,6.53
2018-02-02T13:26:12.816Z,4.05
2018-02-02T13:28:41.548Z,6.97
2018-02-02T13:31:10.286Z,4.50
2018-02-02T13:33:39.145Z,7.78
2018-02-02T13:36:07.804Z,6.07
2018-02-02T13:38:36.473Z,5.35
2018-02-02T13:41:05.213Z,5.57
2018-02-02T13:43:33.928Z,5.45
2018-02-02T13:46:03.340Z,7.60
2018-02-02T13:48:32.285Z,7.10
2018-02-02T13:51:01.262Z,5.25
2018-02-02T13:53:30.861Z,5.15
2018-02-02T13:55:59.518Z,5.62
2018-02-02T13:58:28.216Z,5.30
2018-02-02T14:00:56.908Z,5.05
2018-02-02T14:03:25.576Z,3.83
2018-02-02T14:05:55.047Z,4.72
2018-02-02T14:08:23.794Z,11.70
2018-02-02T14:10:53.257Z,5.68
2018-02-02T14:13:22.020Z,5.30
2018-02-02T14:15:50.747Z,4.45
2018-02-02T14:18:20.263Z,5.55
2018-02-02T14:20:49.032Z,5.10
2018-02-02T14:23:17.697Z,5.97
2018-02-02T14:25:46.428Z,4.75
2018-02-02T14:28:15.170Z,6.43
2018-02-02T14:30:43.859Z,8.07
2018-02-02T14:33:12.545Z,8.23
2018-02-02T14:35:41.305Z,6.87
2018-02-02T14:38:10.026Z,5.90
2018-02-02T14:40:38.703Z,6.53
2018-02-02T14:43:07.417Z,6.90
2018-02-02T14:45:36.853Z,8.07
2018-02-02T14:48:05.581Z,7.80
2018-02-02T14:50:34.324Z,6.37
2018-02-02T14:53:02.994Z,5.65
2018-02-02T14:55:32.431Z,6.95
2018-02-02T14:58:01.141Z,7.80
2018-02-02T15:00:29.846Z,7.65
2018-02-02T15:02:58.529Z,9.85
2018-02-02T15:05:27.227Z,6.05
2018-02-02T15:07:55.927Z,9.70
2018-02-02T15:10:25.404Z,10.93
2018-02-02T15:12:54.322Z,10.07
2018-02-02T15:15:23.620Z,10.20
2018-02-02T15:17:52.932Z,8.60
2018-02-02T15:20:21.642Z,8.52
2018-02-02T15:25:52.698Z,6.57
2018-02-02T15:28:21.441Z,8.65
2018-02-02T15:30:50.129Z,9.20
2018-02-02T15:33:18.825Z,8.32
2018-02-02T15:35:47.501Z,8.20
2018-02-02T15:38:16.189Z,7.43
2018-02-02T15:40:44.873Z,7.80
2018-02-02T15:43:13.558Z,9.80
2018-02-02T15:45:42.486Z,11.95
2018-02-02T15:48:10.654Z,9.65
2018-02-02T15:50:39.320Z,9.10
2018-02-02T15:53:07.828Z,11.65
2018-02-02T15:55:36.523Z,11.52
2018-02-02T15:58:05.966Z,9.13
2018-02-02T16:00:34.609Z,9.32
2018-02-02T16:03:03.050Z,10.45
2018-02-02T16:05:31.754Z,26.87
2018-02-02T16:08:00.658Z,10.60
2018-02-02T16:10:30.188Z,79.28
2018-02-02T16:12:58.216Z,13.62
2018-02-02T16:15:26.893Z,13.05
2018-02-02T16:17:55.593Z,21.80
2018-02-02T16:20:24.293Z,10.82
2018-02-02T16:22:53.753Z,26.77
2018-02-02T16:25:22.465Z,13.15
2018-02-02T16:27:51.261Z,16.33
2018-02-02T16:30:20.714Z,41.90
2018-02-02T16:32:49.461Z,26.58
2018-02-02T16:35:18.221Z,27.25
2018-02-02T16:37:46.769Z,36.88
2018-02-02T16:40:15.208Z,18.90
2018-02-02T16:42:43.898Z,65.90
2018-02-02T16:45:12.402Z,26.60
2018-02-02T16:47:41.112Z,14.40
2018-02-02T16:50:09.633Z,31.25
2018-02-02T16:52:38.324Z,19.85
2018-02-02T16:55:07.129Z,23.62
2018-02-02T16:57:35.773Z,25.67
2018-02-02T17:00:04.450Z,31.77
2018-02-02T17:02:33.650Z,47.22
2018-02-02T17:05:02.185Z,24.08
2018-02-02T17:07:30.645Z,21.42
2018-02-02T17:09:59.229Z,10.90
2018-02-02T17:12:27.806Z,30.83
2018-02-02T17:14:56.485Z,12.82
2018-02-02T17:17:25.372Z,13.23
2018-02-02T17:19:54.098Z,25.70
2018-02-02T17:22:22.769Z,10.20
2018-02-02T17:24:51.461Z,7.70
2018-02-02T17:27:20.177Z,8.43
2018-02-02T17:29:49.597Z,7.65
2018-02-02T17:32:18.262Z,6.30
2018-02-02T17:34:46.969Z,5.60
2018-02-02T17:37:15.701Z,5.80
2018-02-02T17:39:44.381Z,13.38
2018-02-02T17:42:13.098Z,17.67
2018-02-02T17:44:41.776Z,17.45
2018-02-02T17:47:10.469Z,12.70
2018-02-02T17:49:39.210Z,6.40
2018-02-02T17:52:07.972Z,10.15
2018-02-02T17:54:36.635Z,10.13
2018-02-02T17:57:05.342Z,13.27
2018-02-02T17:59:34.628Z,16.30
2018-02-02T18:02:20.742Z,13.15
2018-02-02T18:04:50.289Z,9.40
2018-02-02T18:07:18.816Z,18.52
2018-02-02T18:09:47.533Z,14.60
2018-02-02T18:12:16.274Z,25.80
2018-02-02T18:14:44.990Z,17.30
2018-02-02T18:17:14.466Z,16.48
2018-02-02T18:19:42.925Z,21.83
2018-02-02T18:22:11.597Z,24.05
2018-02-02T18:24:40.318Z,23.17
2018-02-02T18:27:09.006Z,50.97
2018-02-02T18:29:37.696Z,23.73
2018-02-02T18:32:05.728Z,23.38
2018-02-02T18:34:34.427Z,17.37
2018-02-02T18:37:03.172Z,13.15
2018-02-02T18:39:32.644Z,17.65
2018-02-02T18:42:01.372Z,11.35
2018-02-02T18:44:30.161Z,26.33
2018-02-02T18:46:59.677Z,23.10
2018-02-02T18:49:28.701Z,15.52
2018-02-02T18:51:57.421Z,12.18
2018-02-02T18:54:26.131Z,20.40
2018-02-02T18:56:54.170Z,14.63
2018-02-02T18:59:22.866Z,14.73
2018-02-02T19:01:51.538Z,20.67
2018-02-02T19:04:20.322Z,19.40
2018-02-02T19:06:49.949Z,17.23
2018-02-02T19:09:18.634Z,12.82
2018-02-02T19:11:47.325Z,15.70
2018-02-02T19:14:16.042Z,26.27
2018-02-02T19:16:45.545Z,15.05
2018-02-02T19:19:14.993Z,31.70
2018-02-02T19:21:43.701Z,32.03
2018-02-02T19:24:12.396Z,15.75
2018-02-02T19:26:41.102Z,12.25
2018-02-02T19:29:09.818Z,18.87
2018-02-02T19:31:38.505Z,16.52
2018-02-02T19:34:07.215Z,24.35
2018-02-02T19:36:35.941Z,25.88
2018-02-02T19:39:03.845Z,19.35
2018-02-02T19:41:32.640Z,15.60
2018-02-02T19:44:01.692Z,17.02
2018-02-02T19:46:30.504Z,16.12
2018-02-02T19:48:59.304Z,19.52
2018-02-02T19:51:28.051Z,24.37
2018-02-02T19:53:57.029Z,10.98
2018-02-02T19:56:25.803Z,30.88
2018-02-02T19:58:54.342Z,39.47
2018-02-02T20:01:23.117Z,37.47
2018-02-02T20:03:51.806Z,45.55
2018-02-02T20:06:20.533Z,43.92
2018-02-02T20:08:50.468Z,43.15
2018-02-02T20:11:19.334Z,43.42
2018-02-02T20:13:47.725Z,32.88
2018-02-02T20:16:16.737Z,54.90
2018-02-02T20:18:45.537Z,34.28
2018-02-02T20:21:15.320Z,40.60
2018-02-02T20:23:44.918Z,23.67
2018-02-02T20:26:14.369Z,28.52
2018-02-02T20:28:43.093Z,39.60
2018-02-02T20:31:11.777Z,23.17
2018-02-02T20:33:40.766Z,56.92
2018-02-02T20:36:10.269Z,41.72
2018-02-02T20:38:39.188Z,22.80
2018-02-02T20:41:08.669Z,24.75
2018-02-02T20:43:37.806Z,32.25
2018-02-02T20:46:06.743Z,22.95
2018-02-02T20:48:35.490Z,34.00
2018-02-02T20:51:03.953Z,45.58
2018-02-02T20:53:32.826Z,52.17
2018-02-02T20:56:01.556Z,24.77
2018-02-02T20:58:30.563Z,19.23
2018-02-02T21:00:59.392Z,24.98
2018-02-02T21:03:28.346Z,27.77
2018-02-02T21:05:57.228Z,39.72
2018-02-02T21:08:26.191Z,24.37
2018-02-02T21:10:55.202Z,38.58
2018-02-02T21:13:24.184Z,28.20
2018-02-02T21:15:52.889Z,60.72
2018-02-02T21:18:22.455Z,29.87
2018-02-02T21:20:51.181Z,39.80
2018-02-02T21:23:19.884Z,20.73
2018-02-02T21:25:48.619Z,21.60
2018-02-02T21:28:17.166Z,25.58
2018-02-02T21:30:45.932Z,24.17
2018-02-02T21:33:14.658Z,25.00
2018-02-02T21:35:44.173Z,25.65
2018-02-02T21:38:12.874Z,28.27
2018-02-02T21:40:41.557Z,24.35
2018-02-02T21:43:10.270Z,22.90
2018-02-02T21:45:38.986Z,18.15
2018-02-02T21:48:09.405Z,33.63
2018-02-02T21:50:38.089Z,17.48
2018-02-02T21:53:07.950Z,23.00
2018-02-02T21:55:37.443Z,22.90
2018-02-02T21:58:06.291Z,23.05
2018-02-02T22:00:35.177Z,18.95
2018-02-02T22:03:03.872Z,12.85
2018-02-02T22:05:31.933Z,17.17
2018-02-02T22:08:02.567Z,21.15
2018-02-02T22:10:31.326Z,20.08
2018-02-02T22:13:00.190Z,32.72
2018-02-02T22:15:28.907Z,24.52
2018-02-02T22:17:59.715Z,14.27
2018-02-02T22:20:29.838Z,18.37
2018-02-02T22:22:58.554Z,20.12
2018-02-02T22:25:27.270Z,21.48
2018-02-02T22:27:56.565Z,12.85
2018-02-02T22:30:26.056Z,17.52
2018-02-02T22:32:54.783Z,14.85
2018-02-02T22:35:23.509Z,18.98
2018-02-02T22:37:52.215Z,21.02
2018-02-02T22:40:20.950Z,19.50
2018-02-02T22:42:48.994Z,18.83
2018-02-02T22:45:17.700Z,20.25
2018-02-02T22:47:46.422Z,27.50
2018-02-02T22:50:15.149Z,23.73
2018-02-02T22:52:44.650Z,21.45
2018-02-02T22:55:13.355Z,22.83
2018-02-02T22:57:42.085Z,15.07
2018-02-02T23:00:10.113Z,21.65
2018-02-02T23:02:39.594Z,20.55
2018-02-02T23:05:07.973Z,22.83
2018-02-02T23:07:36.691Z,20.67
2018-02-02T23:10:06.165Z,19.65
2018-02-02T23:12:34.868Z,22.25
2018-02-02T23:15:03.580Z,18.77
2018-02-02T23:17:32.294Z,15.90
2018-02-02T23:20:01.070Z,11.80
2018-02-02T23:22:29.586Z,9.95
2018-02-02T23:24:58.298Z,7.90
2018-02-02T23:27:26.983Z,8.95
2018-02-02T23:29:56.482Z,5.20
2018-02-02T23:32:25.181Z,9.15
2018-02-02T23:34:53.914Z,15.35
2018-02-02T23:37:22.513Z,15.43
2018-02-02T23:39:51.176Z,13.50
2018-02-02T23:42:19.875Z,14.68
2018-02-02T23:44:48.604Z,14.68
2018-02-02T23:47:17.285Z,20.65
2018-02-02T23:49:45.989Z,20.80
2018-02-02T23:52:14.564Z,17.65
2018-02-02T23:54:44.039Z,17.55
2018-02-02T23:57:13.337Z,16.20
2018-02-02T23:59:42.070Z,14.30
